Worcester, United Kingdom
Current Conditions -  °F | °C
As of 4:20 PM on Friday 19 Dec 2014 (Local Time) from EGBJ Reporting Station
Few Clouds Few Clouds  
Wind Chill:   Ceiling: Unl
Heat Index:   Visibility: 6mi
Dew Point:   Wind: 0mph
Humidity: 71%   Direction: NA
Pressure: 30.09"   Gusts: NA
Location:  52.19°N, 2.22°W
Report Text: EGBJ 191620Z 00000KT 9999 FEW030 07/02 Q1019
Loading
Personal Weather Stations






























Interactive Weather Map New forecast layout! Learn more

10-Day Weather Forecast

Advertisements
Track Severe Weather on mobile